Serrana, Brazil
Current Conditions -  °F | °C
As of 2:00 PM on Friday 21 Nov 2014 (Local Time) from SBRP Reporting Station
Broken Clouds Broken Clouds  
Wind Chill: 93°   Ceiling: 3000
Heat Index: 93°   Visibility: 6mi
Dew Point: 52°   Wind: 9mph
Humidity: 24%   Direction: 320°NW
Pressure: 29.91"   Gusts: NA
Location:  21.21°S, 47.6°W
Report Text: SBRP 211600Z 32008KT 9999 BKN030 34/11 Q1013
Loading
Personal Weather Stations






























Interactive Weather Map New forecast layout! Learn more

10-Day Weather Forecast

Advertisements
Track Severe Weather on mobile